Time;durP1;ratioP1;P1;durP2;ratioP2;P2;SDS_P1;SDS_P2;PMS_P1;PMS_P2;Temp;Humidity;BMP_temperature;BMP_pressure;BME280_temperature;BME280_humidity;BME280_pressure;Samples;Min_cycle;Max_cycle;Signal;HPM_P1;HPM_P2
2021/08/15 00:01:05;;;;;;;19.52;11.55;;;15.70;99.90;;;;;;5067573;28;20036;-71
2021/08/15 00:03:31;;;;;;;20.45;12.10;;;15.80;99.90;;;;;;5073488;28;20042;-71
2021/08/15 00:05:57;;;;;;;14.88;10.20;;;15.80;99.90;;;;;;5068533;28;20076;-71
2021/08/15 00:08:23;;;;;;;18.02;10.48;;;15.80;99.90;;;;;;5069841;28;20036;-71
2021/08/15 00:10:49;;;;;;;19.88;12.15;;;15.80;99.90;;;;;;5074190;28;20036;-72
2021/08/15 00:13:15;;;;;;;19.58;12.40;;;15.80;99.90;;;;;;5075171;28;20036;-72
2021/08/15 00:15:41;;;;;;;15.82;10.68;;;15.80;99.90;;;;;;5075025;28;20044;-72
2021/08/15 00:18:07;;;;;;;21.98;11.20;;;15.80;99.90;;;;;;5068507;28;20047;-72
2021/08/15 00:20:33;;;;;;;17.08;12.38;;;15.80;99.90;;;;;;5074629;28;20050;-72
2021/08/15 00:22:59;;;;;;;21.33;10.73;;;15.80;99.90;;;;;;5070638;28;20685;-72
2021/08/15 00:25:25;;;;;;;16.25;11.98;;;15.80;99.90;;;;;;5066502;28;20044;-72
2021/08/15 00:27:51;;;;;;;17.92;10.80;;;15.80;99.90;;;;;;5053694;28;20105;-72
2021/08/15 00:30:17;;;;;;;22.45;12.35;;;15.70;99.90;;;;;;5053527;28;20045;-72
2021/08/15 00:32:45;;;;;;;19.65;11.23;;;15.80;99.90;;;;;;5076250;28;20119;-72
2021/08/15 00:35:11;;;;;;;23.27;12.48;;;15.80;99.90;;;;;;5047676;28;20041;-72
2021/08/15 00:37:37;;;;;;;18.65;12.13;;;15.80;99.90;;;;;;5063579;28;20441;-72
2021/08/15 00:40:05;;;;;;;17.27;11.60;;;15.80;99.90;;;;;;5078831;28;20058;-72
2021/08/15 00:42:37;;;;;;;16.00;9.93;;;15.80;99.90;;;;;;5071548;28;20048;-72
2021/08/15 00:45:04;;;;;;;19.45;11.07;;;15.80;99.90;;;;;;5075395;28;20044;-72
2021/08/15 00:47:32;;;;;;;15.65;10.77;;;15.80;99.90;;;;;;5073856;28;20056;-72
2021/08/15 00:50:00;;;;;;;17.70;10.60;;;15.70;99.90;;;;;;5081235;28;20457;-72
2021/08/15 00:52:26;;;;;;;18.20;11.25;;;15.70;99.90;;;;;;5055008;28;20051;-73
2021/08/15 00:54:54;;;;;;;15.10;11.05;;;15.70;99.90;;;;;;5076533;28;20086;-72
2021/08/15 00:57:24;;;;;;;18.50;10.05;;;15.70;99.90;;;;;;5077390;28;20036;-72
2021/08/15 00:59:50;;;;;;;14.43;9.15;;;15.70;99.90;;;;;;5085921;28;20045;-72
2021/08/15 01:02:16;;;;;;;16.30;9.15;;;15.80;99.90;;;;;;5076742;28;20059;-72
2021/08/15 01:04:42;;;;;;;16.08;9.43;;;15.80;99.90;;;;;;5077386;28;20064;-72
2021/08/15 01:07:08;;;;;;;15.75;9.40;;;15.80;99.90;;;;;;5054464;28;20075;-72
2021/08/15 01:09:34;;;;;;;16.45;8.82;;;15.80;99.90;;;;;;5085649;28;20118;-73
2021/08/15 01:12:02;;;;;;;13.15;8.95;;;15.80;99.90;;;;;;5079554;28;20032;-72
2021/08/15 01:14:28;;;;;;;16.38;9.63;;;15.80;99.90;;;;;;5085132;28;20491;-73
2021/08/15 01:16:54;;;;;;;14.95;9.68;;;15.90;99.90;;;;;;5084726;28;20036;-72
2021/08/15 01:19:28;;;;;;;14.25;9.15;;;15.90;99.90;;;;;;5080027;28;20622;-72
2021/08/15 01:21:58;;;;;;;13.45;8.52;;;15.90;99.90;;;;;;5073419;28;20047;-72
2021/08/15 01:24:28;;;;;;;11.90;8.00;;;15.90;99.90;;;;;;5077473;28;20047;-72
2021/08/15 01:26:59;;;;;;;15.27;8.85;;;15.90;99.90;;;;;;5089841;28;20044;-72
2021/08/15 01:29:27;;;;;;;14.18;9.10;;;15.90;99.90;;;;;;5086405;28;20040;-72
2021/08/15 01:31:56;;;;;;;16.02;8.88;;;15.90;99.90;;;;;;5079503;28;20471;-72
2021/08/15 01:34:23;;;;;;;14.60;7.70;;;15.90;99.90;;;;;;5080778;28;20181;-72
2021/08/15 01:36:49;;;;;;;13.82;8.68;;;15.90;99.90;;;;;;5080574;28;20503;-73
2021/08/15 01:39:20;;;;;;;15.30;9.55;;;15.90;99.90;;;;;;5073413;28;20044;-73
2021/08/15 01:41:46;;;;;;;13.18;8.40;;;15.90;99.90;;;;;;5065813;28;20380;-72
2021/08/15 01:44:12;;;;;;;16.85;9.23;;;15.90;99.90;;;;;;5073552;28;20051;-72
2021/08/15 01:46:41;;;;;;;15.25;9.05;;;15.90;99.90;;;;;;5068083;28;20032;-72
2021/08/15 01:49:06;;;;;;;12.88;8.65;;;15.90;99.90;;;;;;5074455;28;20556;-72
2021/08/15 01:51:32;;;;;;;13.20;8.60;;;15.90;99.90;;;;;;5069270;28;20047;-72
2021/08/15 01:54:02;;;;;;;14.02;8.77;;;15.90;99.90;;;;;;5078748;28;20922;-72
2021/08/15 01:56:28;;;;;;;10.93;7.93;;;15.90;99.90;;;;;;5056743;28;20437;-72
2021/08/15 01:58:57;;;;;;;11.60;8.60;;;15.90;99.90;;;;;;5066732;28;20705;-72
2021/08/15 02:01:23;;;;;;;13.25;9.02;;;15.90;99.90;;;;;;5077382;28;20115;-72
2021/08/15 02:03:49;;;;;;;13.50;8.23;;;15.80;99.90;;;;;;5058484;28;20549;-72
2021/08/15 02:06:17;;;;;;;13.48;8.40;;;15.80;99.90;;;;;;5081029;28;20402;-73
2021/08/15 02:08:44;;;;;;;10.90;7.30;;;15.90;99.90;;;;;;5080610;28;20051;-72
2021/08/15 02:11:10;;;;;;;13.02;8.82;;;15.80;99.90;;;;;;5067832;28;20040;-73
2021/08/15 02:13:36;;;;;;;12.27;7.88;;;15.80;99.90;;;;;;5078967;28;20090;-72
2021/08/15 02:16:02;;;;;;;15.95;7.40;;;15.80;99.90;;;;;;5059067;28;20768;-73
2021/08/15 02:18:28;;;;;;;14.20;8.40;;;15.80;99.90;;;;;;5059649;28;20028;-72
2021/08/15 02:20:54;;;;;;;12.50;7.88;;;15.80;99.90;;;;;;5065709;28;20037;-72
2021/08/15 02:23:19;;;;;;;13.32;8.38;;;15.80;99.90;;;;;;5069757;28;20861;-72
2021/08/15 02:25:45;;;;;;;11.52;7.68;;;15.80;99.90;;;;;;5071834;28;20124;-72
2021/08/15 02:28:11;;;;;;;11.05;8.05;;;15.80;99.90;;;;;;5070759;28;20044;-72
2021/08/15 02:30:37;;;;;;;15.35;8.20;;;15.80;99.90;;;;;;5070969;28;20143;-72
2021/08/15 02:33:03;;;;;;;13.88;8.57;;;15.80;99.90;;;;;;5075136;28;20039;-72
2021/08/15 02:35:31;;;;;;;11.52;8.10;;;15.80;99.90;;;;;;5064327;28;20063;-72
2021/08/15 02:37:58;;;;;;;11.82;7.85;;;15.70;99.90;;;;;;5045137;28;20051;-72
2021/08/15 02:40:24;;;;;;;11.88;7.43;;;15.70;99.90;;;;;;5068042;28;20105;-72
2021/08/15 02:42:52;;;;;;;13.63;7.68;;;15.70;99.90;;;;;;5068905;28;20123;-73
2021/08/15 02:45:20;;;;;;;10.98;7.25;;;15.70;99.90;;;;;;5072343;28;20127;-73
2021/08/15 02:47:46;;;;;;;13.80;7.45;;;15.70;99.90;;;;;;5068257;28;20436;-73
2021/08/15 02:50:13;;;;;;;13.05;8.00;;;15.70;99.90;;;;;;5070093;28;20048;-73
2021/08/15 02:52:40;;;;;;;13.23;7.43;;;15.70;99.90;;;;;;5078327;28;20036;-73
2021/08/15 02:55:07;;;;;;;13.65;8.48;;;15.70;99.90;;;;;;5074743;28;20886;-73
2021/08/15 02:57:33;;;;;;;12.95;7.53;;;15.70;99.90;;;;;;5072026;28;20036;-73
2021/08/15 02:59:59;;;;;;;10.73;7.35;;;15.60;99.90;;;;;;5069792;28;20044;-73
2021/08/15 03:02:25;;;;;;;13.38;8.50;;;15.60;99.90;;;;;;5073291;28;20453;-73
2021/08/15 03:04:51;;;;;;;11.43;8.40;;;15.60;99.90;;;;;;5057978;28;20375;-73
2021/08/15 03:07:17;;;;;;;10.48;6.90;;;15.60;99.90;;;;;;5052422;28;20036;-73
2021/08/15 03:09:44;;;;;;;12.43;8.43;;;15.60;99.90;;;;;;5076582;28;20040;-73
2021/08/15 03:12:10;;;;;;;12.07;7.47;;;15.60;99.90;;;;;;5071813;28;20044;-73
2021/08/15 03:14:38;;;;;;;12.35;8.55;;;15.60;99.90;;;;;;5081338;28;20060;-73
2021/08/15 03:17:05;;;;;;;13.35;8.70;;;15.50;99.90;;;;;;5039111;28;20036;-73
2021/08/15 03:19:31;;;;;;;12.35;8.52;;;15.50;99.90;;;;;;5074827;28;20102;-73
2021/08/15 03:21:57;;;;;;;12.27;7.68;;;15.50;99.90;;;;;;5063911;28;21278;-73
2021/08/15 03:24:23;;;;;;;14.55;8.90;;;15.50;99.90;;;;;;5049171;28;20619;-73
2021/08/15 03:26:49;;;;;;;15.40;7.65;;;15.50;99.90;;;;;;5054195;28;20067;-73
2021/08/15 03:29:17;;;;;;;10.35;7.25;;;15.50;99.90;;;;;;5080909;28;20431;-72
2021/08/15 03:31:44;;;;;;;13.05;8.52;;;15.50;99.90;;;;;;5082328;28;20036;-72
2021/08/15 03:34:11;;;;;;;11.63;7.55;;;15.40;99.90;;;;;;5077121;28;20063;-72
2021/08/15 03:36:37;;;;;;;11.40;7.03;;;15.40;99.90;;;;;;5077215;28;20076;-72
2021/08/15 03:39:07;;;;;;;12.65;7.20;;;15.30;99.90;;;;;;5073516;28;20528;-73
2021/08/15 03:41:33;;;;;;;12.23;6.15;;;15.30;99.90;;;;;;5070502;28;20115;-72
2021/08/15 03:43:59;;;;;;;10.30;6.25;;;15.30;99.90;;;;;;5072355;28;20064;-73
2021/08/15 03:46:25;;;;;;;11.70;7.65;;;15.30;99.90;;;;;;5077506;28;20422;-72
2021/08/15 03:48:51;;;;;;;12.35;7.07;;;15.30;99.90;;;;;;5075403;28;20040;-73
2021/08/15 03:51:26;;;;;;;9.50;6.47;;;15.30;99.90;;;;;;5060331;28;20036;-73
2021/08/15 03:53:52;;;;;;;11.30;7.60;;;15.30;99.90;;;;;;5073827;28;20401;-73
2021/08/15 03:56:18;;;;;;;14.52;8.57;;;15.30;99.90;;;;;;5077916;28;20118;-73
2021/08/15 03:58:44;;;;;;;11.55;7.53;;;15.30;99.90;;;;;;5071798;28;20119;-73
2021/08/15 04:01:10;;;;;;;10.50;7.20;;;15.30;99.90;;;;;;5075666;28;20270;-73
2021/08/15 04:03:37;;;;;;;11.88;7.30;;;15.30;99.90;;;;;;5049735;28;20043;-73
2021/08/15 04:06:08;;;;;;;10.57;6.65;;;15.30;99.90;;;;;;5077297;28;20040;-73
2021/08/15 04:08:36;;;;;;;12.57;7.00;;;15.30;99.90;;;;;;5077521;28;20063;-73
2021/08/15 04:11:03;;;;;;;9.43;6.47;;;15.30;99.90;;;;;;5066048;28;20140;-72
2021/08/15 04:13:29;;;;;;;11.73;7.38;;;15.30;99.90;;;;;;5076701;28;20522;-72
2021/08/15 04:15:55;;;;;;;10.85;7.93;;;15.30;99.90;;;;;;5062176;28;20481;-72
2021/08/15 04:18:21;;;;;;;13.98;8.55;;;15.30;99.90;;;;;;5070342;28;20120;-73
2021/08/15 04:20:48;;;;;;;11.95;7.45;;;15.30;99.90;;;;;;5073727;28;20041;-73
2021/08/15 04:23:16;;;;;;;12.95;8.38;;;15.20;99.90;;;;;;5069839;28;20044;-73
2021/08/15 04:25:43;;;;;;;10.07;6.90;;;15.30;99.90;;;;;;5069267;28;20048;-73
2021/08/15 04:28:09;;;;;;;9.25;6.13;;;15.20;99.90;;;;;;5076895;28;20609;-74
2021/08/15 04:30:35;;;;;;;10.18;6.93;;;15.30;99.90;;;;;;5049211;28;20071;-72
2021/08/15 04:33:01;;;;;;;11.27;6.65;;;15.30;99.90;;;;;;5074217;28;20071;-72
2021/08/15 04:35:27;;;;;;;11.38;6.88;;;15.30;99.90;;;;;;5080122;28;20063;-73
2021/08/15 04:37:53;;;;;;;10.90;6.50;;;15.20;99.90;;;;;;5056121;28;20084;-72
2021/08/15 04:40:22;;;;;;;10.88;7.05;;;15.20;99.90;;;;;;5065373;28;20067;-73
2021/08/15 04:42:48;;;;;;;11.63;7.50;;;15.20;99.90;;;;;;5095378;28;20498;-73
2021/08/15 04:45:14;;;;;;;11.63;6.50;;;15.20;99.90;;;;;;5080496;28;20036;-73
2021/08/15 04:47:39;;;;;;;12.10;7.20;;;15.20;99.90;;;;;;5079136;28;20064;-74
2021/08/15 04:50:06;;;;;;;13.88;7.35;;;15.20;99.90;;;;;;5072501;28;20051;-72
2021/08/15 04:52:35;;;;;;;13.27;8.23;;;15.20;99.90;;;;;;5070555;28;20056;-71
2021/08/15 04:55:04;;;;;;;12.25;7.70;;;15.20;99.90;;;;;;5062062;28;20115;-71
2021/08/15 04:57:30;;;;;;;14.55;8.70;;;15.20;99.90;;;;;;5074041;28;20052;-72
2021/08/15 05:00:04;;;;;;;10.32;6.75;;;15.20;99.90;;;;;;5083866;28;20036;-72
2021/08/15 05:02:30;;;;;;;13.23;8.10;;;15.10;99.90;;;;;;5079343;28;20044;-72
2021/08/15 05:04:56;;;;;;;14.00;8.18;;;15.20;99.90;;;;;;5073633;28;20039;-72
2021/08/15 05:07:22;;;;;;;15.98;9.07;;;15.20;99.90;;;;;;5081922;28;20036;-72
2021/08/15 05:09:50;;;;;;;13.57;7.68;;;15.20;99.90;;;;;;5065850;28;20116;-72
2021/08/15 05:12:16;;;;;;;11.18;7.45;;;15.20;99.90;;;;;;5059567;28;20573;-72
2021/08/15 05:14:44;;;;;;;16.42;8.27;;;15.30;99.90;;;;;;5072975;28;20119;-73
2021/08/15 05:17:09;;;;;;;13.73;8.45;;;15.30;99.90;;;;;;5078162;28;20141;-72
2021/08/15 05:19:35;;;;;;;15.55;7.95;;;15.30;99.90;;;;;;5072042;28;20141;-72
2021/08/15 05:22:02;;;;;;;12.10;7.85;;;15.30;99.90;;;;;;5082520;28;20048;-72
2021/08/15 05:24:28;;;;;;;13.63;8.80;;;15.40;99.90;;;;;;5063920;28;20044;-71
2021/08/15 05:26:54;;;;;;;9.35;6.88;;;15.40;99.90;;;;;;5087256;28;20483;-72
2021/08/15 05:29:21;;;;;;;11.40;7.47;;;15.40;99.90;;;;;;5086160;28;20441;-72
2021/08/15 05:31:47;;;;;;;12.30;7.30;;;15.50;99.90;;;;;;5069466;28;20047;-72
2021/08/15 05:34:13;;;;;;;12.65;7.28;;;15.50;99.90;;;;;;5090190;28;20486;-72
2021/08/15 05:36:39;;;;;;;12.00;6.68;;;15.50;99.90;;;;;;5080175;28;20051;-72
2021/08/15 05:39:05;;;;;;;11.77;7.30;;;15.50;99.90;;;;;;5078007;28;20061;-72
2021/08/15 05:41:31;;;;;;;10.32;6.57;;;15.50;99.90;;;;;;5063784;28;20048;-73
2021/08/15 05:43:58;;;;;;;13.90;7.82;;;15.40;99.90;;;;;;5063341;28;20662;-73
2021/08/15 05:46:24;;;;;;;11.45;7.47;;;15.40;99.90;;;;;;5083782;28;20036;-72
2021/08/15 05:48:50;;;;;;;12.95;7.72;;;15.40;99.90;;;;;;5089787;28;20120;-72
2021/08/15 05:51:15;;;;;;;11.05;7.13;;;15.40;99.90;;;;;;5075211;28;20531;-73
2021/08/15 05:53:41;;;;;;;14.00;8.45;;;15.50;99.90;;;;;;5066462;28;20036;-73
2021/08/15 05:56:07;;;;;;;11.00;7.68;;;15.60;99.90;;;;;;5068293;28;20477;-73
2021/08/15 05:58:33;;;;;;;11.82;7.75;;;15.60;99.90;;;;;;5079739;28;20048;-73
2021/08/15 06:00:59;;;;;;;12.90;8.52;;;15.70;99.90;;;;;;5069811;28;20048;-72
2021/08/15 06:03:25;;;;;;;11.18;8.23;;;15.80;99.90;;;;;;5066454;28;20447;-73
2021/08/15 06:05:51;;;;;;;13.05;9.40;;;15.80;99.90;;;;;;5051208;28;20483;-73
2021/08/15 06:08:17;;;;;;;13.93;9.20;;;15.90;99.90;;;;;;5078528;28;20062;-72
2021/08/15 06:10:43;;;;;;;11.52;8.63;;;16.00;99.90;;;;;;5082021;28;20486;-73
2021/08/15 06:13:09;;;;;;;13.68;9.23;;;16.10;99.90;;;;;;5083709;28;20067;-73
2021/08/15 06:15:36;;;;;;;12.43;8.60;;;16.10;99.90;;;;;;5082198;28;20050;-73
2021/08/15 06:18:02;;;;;;;14.55;8.98;;;16.20;99.90;;;;;;5085880;28;20390;-73
2021/08/15 06:20:28;;;;;;;12.25;9.10;;;16.20;99.90;;;;;;5083051;28;20819;-74
2021/08/15 06:22:54;;;;;;;15.20;9.73;;;16.30;99.90;;;;;;5071034;28;20036;-72
2021/08/15 06:25:20;;;;;;;13.18;9.15;;;16.30;99.90;;;;;;5080895;28;20150;-72
2021/08/15 06:27:46;;;;;;;15.73;9.43;;;16.40;99.90;;;;;;5075041;28;20135;-72
2021/08/15 06:30:13;;;;;;;13.13;8.57;;;16.50;99.90;;;;;;5078314;28;20040;-72
2021/08/15 06:32:53;;;;;;;13.80;8.88;;;16.60;99.90;;;;;;5075693;28;20560;-72
2021/08/15 06:35:21;;;;;;;12.90;8.75;;;16.70;99.90;;;;;;5091335;28;20462;-74
2021/08/15 06:38:00;;;;;;;15.95;8.95;;;16.70;99.90;;;;;;5084145;28;20055;-72
2021/08/15 06:40:28;;;;;;;11.80;8.15;;;16.90;99.90;;;;;;5071669;28;20048;-74
2021/08/15 06:43:06;;;;;;;12.20;8.30;;;17.00;99.90;;;;;;5087644;28;20038;-73
2021/08/15 06:45:33;;;;;;;12.38;8.15;;;17.00;99.90;;;;;;5082785;28;20036;-72
2021/08/15 06:47:59;;;;;;;12.55;7.45;;;17.10;99.90;;;;;;5067657;28;20043;-73
2021/08/15 06:50:25;;;;;;;12.70;8.02;;;17.20;99.90;;;;;;5083160;28;20512;-74
2021/08/15 06:52:51;;;;;;;13.80;7.15;;;17.30;99.90;;;;;;5083640;28;20047;-72
2021/08/15 06:55:17;;;;;;;12.05;8.02;;;17.40;99.90;;;;;;5083708;28;20051;-72
2021/08/15 06:57:43;;;;;;;12.05;7.47;;;17.60;99.90;;;;;;5078142;28;20032;-72
2021/08/15 07:00:09;;;;;;;11.20;7.50;;;17.60;99.90;;;;;;5063658;28;20040;-73
2021/08/15 07:02:40;;;;;;;13.57;7.55;;;17.70;99.90;;;;;;5086862;28;20071;-72
2021/08/15 07:05:15;;;;;;;;;;;17.90;99.90;;;;;;5081675;28;20062;-73
2021/08/15 07:07:41;;;;;;;13.70;7.43;;;18.00;99.90;;;;;;5086186;28;19965;-72
2021/08/15 07:10:08;;;;;;;14.00;7.72;;;18.10;99.90;;;;;;5064854;28;20043;-71
2021/08/15 07:12:35;;;;;;;13.25;7.53;;;18.20;99.90;;;;;;5086489;28;20082;-72
2021/08/15 07:15:01;;;;;;;12.00;7.30;;;18.30;99.90;;;;;;5082453;28;20115;-72
2021/08/15 07:17:28;;;;;;;13.20;7.32;;;18.40;99.90;;;;;;5081491;28;20093;-72
2021/08/15 07:19:54;;;;;;;11.52;6.88;;;18.60;99.90;;;;;;5087179;28;20040;-72
2021/08/15 07:22:20;;;;;;;11.02;7.30;;;18.70;99.90;;;;;;5080582;28;20050;-71
2021/08/15 07:24:46;;;;;;;11.38;6.45;;;18.80;99.90;;;;;;5084798;28;20504;-72
2021/08/15 07:27:12;;;;;;;10.73;6.80;;;18.90;99.90;;;;;;5082294;28;20037;-73
2021/08/15 07:29:38;;;;;;;11.50;6.80;;;19.00;99.90;;;;;;5082450;28;20427;-72
2021/08/15 07:32:05;;;;;;;12.70;7.35;;;19.20;99.90;;;;;;5087479;28;20064;-72
2021/08/15 07:34:31;;;;;;;10.18;6.85;;;19.30;99.70;;;;;;5076306;28;20066;-73
2021/08/15 07:36:57;;;;;;;13.02;6.78;;;19.40;99.60;;;;;;5080734;28;20048;-73
2021/08/15 07:39:23;;;;;;;12.95;6.75;;;19.60;99.50;;;;;;5075269;28;20048;-73
2021/08/15 07:41:50;;;;;;;13.38;6.57;;;19.70;99.00;;;;;;5081075;28;20124;-73
2021/08/15 07:44:16;;;;;;;11.60;6.32;;;19.80;99.00;;;;;;5081469;28;20115;-73
2021/08/15 07:46:42;;;;;;;9.65;6.50;;;19.80;98.80;;;;;;5084912;28;20072;-73
2021/08/15 07:49:08;;;;;;;15.48;6.80;;;19.90;98.70;;;;;;5071521;28;20516;-73
2021/08/15 07:51:33;;;;;;;10.43;6.68;;;20.00;98.50;;;;;;5067382;28;20044;-73
2021/08/15 07:53:59;;;;;;;10.05;6.55;;;20.20;98.20;;;;;;5081101;28;20036;-73
2021/08/15 07:56:25;;;;;;;12.38;6.30;;;20.30;98.10;;;;;;5083402;28;20075;-73
2021/08/15 07:58:51;;;;;;;10.73;6.47;;;20.30;97.70;;;;;;5072845;28;20592;-73
2021/08/15 08:01:21;;;;;;;10.80;6.32;;;20.50;97.80;;;;;;5053382;28;20040;-73
2021/08/15 08:03:47;;;;;;;11.77;6.35;;;20.70;97.50;;;;;;5074424;28;20048;-73
2021/08/15 08:06:12;;;;;;;10.32;6.60;;;20.70;97.40;;;;;;5073792;28;20388;-73
2021/08/15 08:08:38;;;;;;;9.68;5.82;;;20.80;97.20;;;;;;5069569;28;20063;-73
2021/08/15 08:11:04;;;;;;;10.98;6.75;;;21.00;96.70;;;;;;5053497;28;20664;-73
2021/08/15 08:13:30;;;;;;;9.82;5.57;;;21.00;96.50;;;;;;5054832;28;20052;-73
2021/08/15 08:15:56;;;;;;;13.82;7.25;;;21.10;96.60;;;;;;5058418;28;20033;-73
2021/08/15 08:18:23;;;;;;;10.57;5.38;;;21.20;96.30;;;;;;5062224;28;20032;-74
2021/08/15 08:20:49;;;;;;;9.95;5.85;;;21.40;96.30;;;;;;5073593;28;20402;-74
2021/08/15 08:23:16;;;;;;;10.63;6.20;;;21.50;95.60;;;;;;5068064;28;20048;-74
2021/08/15 08:25:44;;;;;;;11.13;6.50;;;21.60;95.40;;;;;;5067930;28;20067;-74
2021/08/15 08:28:11;;;;;;;10.77;5.90;;;21.70;95.30;;;;;;5072800;28;20046;-72
2021/08/15 08:30:37;;;;;;;10.10;6.22;;;21.80;95.10;;;;;;5069424;28;20060;-73
2021/08/15 08:33:04;;;;;;;11.00;5.90;;;21.80;94.70;;;;;;5076416;28;20040;-72
2021/08/15 08:35:30;;;;;;;12.55;6.63;;;21.80;94.80;;;;;;5048466;28;20052;-72
2021/08/15 08:37:56;;;;;;;12.73;5.85;;;21.90;94.50;;;;;;5076913;28;20054;-72
2021/08/15 08:40:22;;;;;;;11.70;6.47;;;21.90;94.50;;;;;;5066649;28;20040;-72
2021/08/15 08:42:49;;;;;;;9.55;5.30;;;21.90;94.00;;;;;;5091074;28;20041;-72
2021/08/15 08:45:26;;;;;;;10.73;6.00;;;22.00;93.60;;;;;;5076180;28;20058;-72
2021/08/15 08:47:54;;;;;;;12.35;6.15;;;22.10;93.30;;;;;;5072719;28;20036;-72
2021/08/15 08:50:21;;;;;;;11.32;5.85;;;22.10;93.00;;;;;;5083968;28;20135;-72
2021/08/15 08:52:47;;;;;;;8.75;6.03;;;22.20;93.00;;;;;;5073528;28;20037;-72
2021/08/15 08:55:15;;;;;;;12.07;6.05;;;22.40;93.20;;;;;;5071262;28;20402;-73
2021/08/15 08:57:41;;;;;;;8.90;6.13;;;22.50;93.10;;;;;;5076081;28;20059;-73
2021/08/15 09:00:07;;;;;;;11.77;5.97;;;22.60;92.30;;;;;;5046889;28;20052;-75
2021/08/15 09:02:37;;;;;;;12.10;6.63;;;22.60;92.00;;;;;;5073588;28;20042;-75
2021/08/15 09:05:07;;;;;;;;;;;22.70;91.80;;;;;;5078521;28;20524;-74
2021/08/15 09:07:35;;;;;;;8.15;5.75;;;22.70;92.30;;;;;;5089333;28;20007;-75
2021/08/15 09:10:02;;;;;;;12.45;5.80;;;22.80;92.30;;;;;;5074602;28;20110;-75
2021/08/15 09:12:44;;;;;;;12.02;5.70;;;22.90;91.70;;;;;;5082491;28;20491;-75
2021/08/15 09:15:16;;;;;;;10.20;5.93;;;23.00;91.60;;;;;;5080924;28;20036;-75
2021/08/15 09:17:43;;;;;;;12.00;6.07;;;23.00;91.50;;;;;;5077597;28;20391;-75
2021/08/15 09:20:15;;;;;;;13.90;6.05;;;23.00;91.10;;;;;;5075199;28;20058;-75
2021/08/15 09:22:41;;;;;;;9.70;5.35;;;23.00;91.40;;;;;;5080011;28;20711;-74
2021/08/15 09:25:12;;;;;;;9.77;6.03;;;22.90;91.70;;;;;;5075205;28;20040;-73
2021/08/15 09:27:44;;;;;;;11.90;5.68;;;22.90;91.30;;;;;;5075634;28;20414;-74
2021/08/15 09:30:13;;;;;;;14.50;6.22;;;22.90;91.70;;;;;;5079412;28;20058;-73
2021/08/15 09:32:51;;;;;;;11.98;6.38;;;23.00;91.10;;;;;;5080848;28;20056;-73
2021/08/15 09:35:24;;;;;;;11.07;5.60;;;23.10;91.00;;;;;;5072178;28;20044;-73
2021/08/15 09:37:58;;;;;;;14.13;6.38;;;23.30;90.50;;;;;;5075135;28;20177;-74
2021/08/15 09:40:31;;;;;;;11.10;5.43;;;23.40;89.80;;;;;;5073760;28;20032;-74
2021/08/15 09:42:59;;;;;;;11.95;6.53;;;23.50;89.80;;;;;;5061400;28;20609;-73
2021/08/15 09:45:47;;;;;;;8.55;5.45;;;23.60;90.00;;;;;;5080333;28;20620;-73
2021/08/15 09:48:18;;;;;;;12.07;5.93;;;23.70;90.10;;;;;;5074732;28;20090;-73
2021/08/15 09:51:03;;;;;;;13.55;6.35;;;23.80;90.10;;;;;;5074092;28;20041;-74
2021/08/15 09:53:28;;;;;;;10.75;5.72;;;23.90;90.40;;;;;;5076608;28;20689;-74
2021/08/15 09:55:58;;;;;;;12.23;6.30;;;24.00;89.30;;;;;;5070920;28;20048;-73
2021/08/15 09:58:24;;;;;;;11.73;6.18;;;24.10;89.30;;;;;;5074085;28;20071;-74
2021/08/15 10:00:51;;;;;;;15.93;6.55;;;24.20;89.30;;;;;;5077390;28;20060;-74
2021/08/15 10:03:17;;;;;;;11.10;6.93;;;24.30;87.10;;;;;;5057262;28;20040;-76
2021/08/15 10:05:44;;;;;;;11.63;6.22;;;24.30;86.80;;;;;;5049822;28;20056;-75
2021/08/15 10:08:14;;;;;;;11.43;6.18;;;24.30;88.10;;;;;;5074872;28;20587;-74
2021/08/15 10:10:40;;;;;;;12.10;6.10;;;24.40;88.90;;;;;;5076136;28;20040;-76
2021/08/15 10:13:08;;;;;;;12.68;6.35;;;24.60;88.40;;;;;;5089420;28;20040;-76
2021/08/15 10:15:38;;;;;;;9.93;6.18;;;24.70;87.50;;;;;;5081590;28;20044;-74
2021/08/15 10:18:09;;;;;;;9.52;5.72;;;24.80;87.20;;;;;;5058787;28;20043;-73
2021/08/15 10:20:35;;;;;;;10.75;6.03;;;24.80;87.80;;;;;;5072312;28;20050;-73
2021/08/15 10:23:11;;;;;;;12.68;6.95;;;24.90;86.80;;;;;;5060930;28;20051;-73
2021/08/15 10:25:43;;;;;;;13.88;6.22;;;24.90;86.30;;;;;;5073944;28;20091;-74
2021/08/15 10:28:29;;;;;;;11.90;6.20;;;24.90;84.00;;;;;;5072592;28;20032;-74
2021/08/15 10:30:57;;;;;;;10.63;5.63;;;24.90;84.00;;;;;;5069795;28;20635;-73
2021/08/15 10:33:32;;;;;;;9.77;5.95;;;24.90;84.70;;;;;;5070322;28;20487;-74
2021/08/15 10:36:19;;;;;;;10.95;6.10;;;24.90;83.50;;;;;;5071955;28;20093;-74
2021/08/15 10:38:47;;;;;;;10.77;5.35;;;25.00;82.40;;;;;;5082356;28;20105;-73
2021/08/15 10:41:13;;;;;;;9.27;6.60;;;25.00;84.20;;;;;;5076901;28;20241;-74
2021/08/15 10:43:40;;;;;;;11.27;6.53;;;25.20;85.10;;;;;;5076123;28;20040;-75
2021/08/15 10:46:22;;;;;;;12.15;7.15;;;25.30;84.60;;;;;;5074530;28;20110;-74
2021/08/15 10:49:10;;;;;;;11.27;6.85;;;25.50;84.40;;;;;;5078324;28;20040;-74
2021/08/15 10:51:44;;;;;;;9.10;5.30;;;25.50;82.50;;;;;;5072560;28;20051;-73
2021/08/15 10:54:28;;;;;;;10.98;6.78;;;25.30;82.90;;;;;;5072723;28;20450;-71
2021/08/15 10:57:00;;;;;;;13.18;6.45;;;25.00;83.10;;;;;;5072648;28;20450;-73
2021/08/15 10:59:38;;;;;;;12.07;7.13;;;25.00;86.40;;;;;;5074288;28;20040;-73
2021/08/15 11:02:15;;;;;;;10.10;5.40;;;25.20;87.20;;;;;;5058223;28;20058;-73
2021/08/15 11:04:58;;;;;;;11.25;5.90;;;25.50;87.40;;;;;;5069292;28;20117;-73
2021/08/15 11:07:41;;;;;;;12.30;6.57;;;25.60;85.30;;;;;;5073907;28;20036;-73
2021/08/15 11:10:12;;;;;;;11.02;6.32;;;25.50;82.70;;;;;;5071053;28;20552;-73
2021/08/15 11:13:14;;;;;;;10.98;6.55;;;25.50;81.10;;;;;;5062832;28;20118;-73
2021/08/15 11:15:40;;;;;;;12.13;5.80;;;25.50;81.80;;;;;;5070194;28;20044;-73
2021/08/15 11:18:14;;;;;;;11.68;6.75;;;25.60;81.50;;;;;;5058782;28;20036;-73
2021/08/15 11:20:47;;;;;;;12.43;6.53;;;25.50;82.40;;;;;;5074095;28;20036;-73
2021/08/15 11:23:16;;;;;;;9.85;5.80;;;25.60;83.40;;;;;;5078021;28;20098;-74
2021/08/15 11:25:43;;;;;;;10.15;5.72;;;25.70;81.80;;;;;;5076211;28;20685;-74
2021/08/15 11:28:10;;;;;;;10.80;6.57;;;25.80;82.50;;;;;;5074775;28;20056;-73
2021/08/15 11:30:37;;;;;;;10.25;6.47;;;25.80;81.70;;;;;;5079160;28;20127;-74
2021/08/15 11:33:07;;;;;;;11.15;6.25;;;25.70;80.10;;;;;;5074717;28;20507;-73
2021/08/15 11:35:44;;;;;;;13.85;6.50;;;25.40;80.60;;;;;;5077003;28;20043;-73
2021/08/15 11:38:15;;;;;;;12.55;5.95;;;25.40;81.90;;;;;;5076463;28;20075;-74
2021/08/15 11:40:51;;;;;;;12.00;5.32;;;25.50;81.90;;;;;;5050757;28;20058;-74
2021/08/15 11:43:19;;;;;;;9.45;5.20;;;25.60;82.50;;;;;;5076216;28;20035;-74
2021/08/15 11:45:54;;;;;;;9.57;5.15;;;25.70;81.90;;;;;;5071374;28;20939;-74
2021/08/15 11:48:28;;;;;;;8.07;4.90;;;25.90;81.30;;;;;;5071390;28;20044;-74
2021/08/15 11:50:58;;;;;;;12.23;5.85;;;26.10;78.90;;;;;;5070918;28;20064;-74
2021/08/15 11:53:30;;;;;;;10.32;5.63;;;26.20;77.60;;;;;;5076264;28;20036;-74
2021/08/15 11:56:07;;;;;;;8.32;5.28;;;26.20;76.30;;;;;;5073369;28;20044;-74
2021/08/15 11:58:34;;;;;;;9.30;5.25;;;25.90;78.10;;;;;;5078637;28;20072;-75
2021/08/15 12:01:09;;;;;;;10.18;5.47;;;25.80;81.40;;;;;;5077875;28;20044;-76
2021/08/15 12:03:35;;;;;;;9.02;4.85;;;25.90;82.30;;;;;;5060159;28;20115;-76
2021/08/15 12:06:03;;;;;;;9.77;4.90;;;25.90;81.30;;;;;;5077808;28;20451;-76
2021/08/15 12:08:40;;;;;;;10.93;5.43;;;25.90;80.30;;;;;;5075006;28;20478;-77
2021/08/15 12:11:29;;;;;;;11.25;5.47;;;26.00;79.10;;;;;;5076663;28;20565;-76
2021/08/15 12:14:13;;;;;;;11.05;5.00;;;25.80;77.30;;;;;;5076319;28;20138;-74
2021/08/15 12:16:52;;;;;;;10.32;5.60;;;25.60;78.80;;;;;;5054595;28;20044;-77
2021/08/15 12:19:23;;;;;;;8.23;4.95;;;25.50;80.10;;;;;;5071772;28;20048;-77
2021/08/15 12:21:51;;;;;;;9.73;3.97;;;25.60;80.20;;;;;;5071381;28;20068;-76
2021/08/15 12:24:28;;;;;;;11.05;5.15;;;25.70;81.10;;;;;;5061025;28;20036;-76
2021/08/15 12:27:08;;;;;;;8.60;4.70;;;25.70;80.90;;;;;;5070806;28;20044;-76
2021/08/15 12:29:36;;;;;;;9.25;4.70;;;25.70;80.40;;;;;;5067188;28;20041;-74
2021/08/15 12:32:15;;;;;;;8.30;5.30;;;25.70;80.30;;;;;;5077577;28;20055;-74
2021/08/15 12:34:44;;;;;;;6.47;4.30;;;25.80;80.60;;;;;;5072743;28;20079;-74
2021/08/15 12:37:21;;;;;;;10.18;5.18;;;26.00;80.10;;;;;;5065704;28;20040;-74
2021/08/15 12:40:00;;;;;;;9.10;5.30;;;26.10;79.70;;;;;;5050500;28;20042;-74
2021/08/15 12:42:26;;;;;;;9.15;5.32;;;26.30;80.00;;;;;;5070771;28;20045;-74
2021/08/15 12:45:06;;;;;;;8.82;4.90;;;26.40;79.90;;;;;;5072663;28;20419;-74